PWSweather.com
Personal Weather Stations
Station Observations
KMAMEDFI2
Medfield, MA 02052

Medfield, MA 02052

Lat: 42.1900822, Lon: -71.3296889

Elevation: 138

Station Type: Rainwise WS MK-III

http://www.medfieldweather.com

High Low Average
Temperature 41.2°F5.1°C 33.9°F1.1°C 37.1°F2.8°C
Dew Point 37.1°F2.8°C 32.6°F0.3°C 34.5°F1.4°C
Winds 4.6 mph 7.4 kmh Calm Calm 2.0 mph SW3.2 kmh SW
Wind Gusts 8.1 mph13.0 kmh -- 2.0 mph3.2 kmh
Humidity 95% 80% 90%
Pressure 30.26 in1024.7 mb 30.19 in1022.4 mb -
Precipitation 0.02 in0.5 mm - -
Hour Temp Dew Point Humidity Winds Wind Gusts Pressure Precip Precip Rate Daily Precip Total
12:00 AM 35.8°F2.1°C 34.5°F1.4°C 95% 2.3 mph N3.7 kmh N 2.3 mph3.7 kmh 30.20 in1022.7 mb - 0.00 in0.0 mm 0.00 in0.0 mm
12:10 AM 35.9°F2.2°C 34.6°F1.4°C 95% 2.3 mph W3.7 kmh W 2.3 mph3.7 kmh 30.20 in1022.7 mb - 0.00 in0.0 mm 0.00 in0.0 mm
12:20 AM 35.9°F2.2°C 34.6°F1.4°C 95% 3.5 mph W5.6 kmh W 3.5 mph5.6 kmh 30.20 in1022.7 mb - 0.00 in0.0 mm 0.00 in0.0 mm
12:30 AM 36.0°F2.2°C 34.7°F1.5°C 95% 1.2 mph S1.9 kmh S 2.3 mph3.7 kmh 30.20 in1022.7 mb - 0.00 in0.0 mm 0.00 in0.0 mm
12:40 AM 36.0°F2.2°C 34.7°F1.5°C 95% 1.2 mph NNW1.9 kmh NNW 2.3 mph3.7 kmh 30.20 in1022.7 mb - 0.00 in0.0 mm 0.00 in0.0 mm
12:50 AM 36.0°F2.2°C 34.7°F1.5°C 95% 2.3 mph WSW3.7 kmh WSW 2.3 mph3.7 kmh 30.20 in1022.7 mb - 0.00 in0.0 mm 0.00 in0.0 mm
01:00 AM 36.1°F2.3°C 34.8°F1.6°C 95% 2.3 mph NW3.7 kmh NW 2.3 mph3.7 kmh 30.20 in1022.7 mb - 0.00 in0.0 mm 0.00 in0.0 mm
01:10 AM 36.0°F2.2°C 34.7°F1.5°C 95% 3.5 mph W5.6 kmh W 3.5 mph5.6 kmh 30.20 in1022.7 mb - 0.00 in0.0 mm 0.00 in0.0 mm
01:20 AM 36.0°F2.2°C 34.7°F1.5°C 95% 2.3 mph SW3.7 kmh SW 2.3 mph3.7 kmh 30.19 in1022.4 mb - 0.00 in0.0 mm 0.00 in0.0 mm
01:30 AM 36.0°F2.2°C 34.7°F1.5°C 95% 2.3 mph NW3.7 kmh NW 2.3 mph3.7 kmh 30.20 in1022.7 mb - 0.00 in0.0 mm 0.00 in0.0 mm
01:40 AM 36.0°F2.2°C 34.7°F1.5°C 95% 3.5 mph WNW5.6 kmh WNW 5.8 mph9.3 kmh 30.20 in1022.7 mb - 0.00 in0.0 mm 0.00 in0.0 mm
01:50 AM 36.0°F2.2°C 34.7°F1.5°C 95% 4.6 mph NW7.4 kmh NW 2.3 mph3.7 kmh 30.20 in1022.7 mb - 0.00 in0.0 mm 0.00 in0.0 mm
02:00 AM 36.0°F2.2°C 34.7°F1.5°C 95% 2.3 mph S3.7 kmh S 2.3 mph3.7 kmh 30.20 in1022.7 mb - 0.00 in0.0 mm 0.00 in0.0 mm
02:10 AM 36.0°F2.2°C 34.7°F1.5°C 95% 2.3 mph SW3.7 kmh SW 2.3 mph3.7 kmh 30.20 in1022.7 mb - 0.00 in0.0 mm 0.00 in0.0 mm
02:20 AM 36.0°F2.2°C 34.7°F1.5°C 95% 3.5 mph NE5.6 kmh NE 3.5 mph5.6 kmh 30.20 in1022.7 mb - 0.00 in0.0 mm 0.00 in0.0 mm
02:30 AM 36.0°F2.2°C 34.7°F1.5°C 95% 1.2 mph N1.9 kmh N 5.8 mph9.3 kmh 30.20 in1022.7 mb - 0.00 in0.0 mm 0.00 in0.0 mm
02:40 AM 36.0°F2.2°C 34.7°F1.5°C 95% 1.2 mph NNW1.9 kmh NNW 2.3 mph3.7 kmh 30.20 in1022.7 mb - 0.00 in0.0 mm 0.00 in0.0 mm
02:50 AM 36.0°F2.2°C 34.7°F1.5°C 95% 2.3 mph WNW3.7 kmh WNW 2.3 mph3.7 kmh 30.20 in1022.7 mb - 0.00 in0.0 mm 0.00 in0.0 mm
03:00 AM 35.9°F2.2°C 34.7°F1.5°C 95% 1.2 mph NW1.9 kmh NW 5.8 mph9.3 kmh 30.20 in1022.7 mb - 0.00 in0.0 mm 0.00 in0.0 mm
03:10 AM 35.8°F2.1°C 34.6°F1.4°C 95% 1.2 mph NW1.9 kmh NW 2.3 mph3.7 kmh 30.20 in1022.7 mb - 0.00 in0.0 mm 0.00 in0.0 mm
03:20 AM 35.8°F2.1°C 34.6°F1.4°C 95% 1.2 mph SSE1.9 kmh SSE 5.8 mph9.3 kmh 30.20 in1022.7 mb - 0.00 in0.0 mm 0.00 in0.0 mm
03:30 AM 35.8°F2.1°C 34.5°F1.4°C 95% 2.3 mph N3.7 kmh N 5.8 mph9.3 kmh 30.19 in1022.4 mb - 0.00 in0.0 mm 0.00 in0.0 mm
03:40 AM 35.7°F2.1°C 34.4°F1.3°C 95% 2.3 mph W3.7 kmh W 5.8 mph9.3 kmh 30.20 in1022.7 mb - 0.00 in0.0 mm 0.00 in0.0 mm
03:50 AM 35.7°F2.1°C 34.4°F1.3°C 95% 2.3 mph WNW3.7 kmh WNW 2.3 mph3.7 kmh 30.20 in1022.7 mb - 0.00 in0.0 mm 0.00 in0.0 mm
04:00 AM 35.7°F2.1°C 34.4°F1.3°C 95% 1.2 mph S1.9 kmh S 2.3 mph3.7 kmh 30.20 in1022.7 mb - 0.00 in0.0 mm 0.00 in0.0 mm
04:10 AM 35.7°F2.1°C 34.4°F1.3°C 95% 2.3 mph WNW3.7 kmh WNW 2.3 mph3.7 kmh 30.20 in1022.7 mb - 0.00 in0.0 mm 0.00 in0.0 mm
04:20 AM 35.6°F2.0°C 34.3°F1.3°C 95% 1.2 mph S1.9 kmh S 2.3 mph3.7 kmh 30.21 in1023.0 mb - 0.00 in0.0 mm 0.00 in0.0 mm
04:30 AM 35.5°F1.9°C 34.2°F1.2°C 95% 1.2 mph N1.9 kmh N 2.3 mph3.7 kmh 30.21 in1023.0 mb - 0.00 in0.0 mm 0.00 in0.0 mm
04:40 AM 35.4°F1.9°C 34.1°F1.2°C 95% 1.2 mph WNW1.9 kmh WNW 2.3 mph3.7 kmh 30.21 in1023.0 mb - 0.00 in0.0 mm 0.00 in0.0 mm
04:50 AM 35.2°F1.8°C 33.9°F1.1°C 95% 1.2 mph NNE1.9 kmh NNE 1.2 mph1.9 kmh 30.21 in1023.0 mb - 0.00 in0.0 mm 0.00 in0.0 mm
05:00 AM 35.0°F1.7°C 33.7°F0.9°C 95% 2.3 mph SW3.7 kmh SW 2.3 mph3.7 kmh 30.22 in1023.4 mb - 0.00 in0.0 mm 0.00 in0.0 mm
05:10 AM 34.7°F1.5°C 33.4°F0.8°C 95% Calm Calm 1.2 mph1.9 kmh 30.21 in1023.0 mb - 0.00 in0.0 mm 0.00 in0.0 mm
05:20 AM 34.2°F1.2°C 32.9°F0.5°C 95% 2.3 mph E3.7 kmh E 2.3 mph3.7 kmh 30.21 in1023.0 mb - 0.00 in0.0 mm 0.00 in0.0 mm
05:30 AM 34.0°F1.1°C 32.7°F0.4°C 95% 2.3 mph NW3.7 kmh NW 2.3 mph3.7 kmh 30.21 in1023.0 mb - 0.01 in0.3 mm 0.01 in0.3 mm
05:40 AM 34.0°F1.1°C 32.7°F0.4°C 95% 2.3 mph W3.7 kmh W 2.3 mph3.7 kmh 30.21 in1023.0 mb - 0.00 in0.0 mm 0.01 in0.3 mm
05:50 AM 34.1°F1.2°C 32.8°F0.4°C 95% Calm Calm 2.3 mph3.7 kmh 30.21 in1023.0 mb - 0.00 in0.0 mm 0.01 in0.3 mm
06:00 AM 34.0°F1.1°C 32.7°F0.4°C 95% 2.3 mph WSW3.7 kmh WSW 5.8 mph9.3 kmh 30.22 in1023.4 mb - 0.00 in0.0 mm 0.01 in0.3 mm
06:10 AM 34.0°F1.1°C 32.7°F0.4°C 95% Calm Calm -- 30.22 in1023.4 mb - 0.00 in0.0 mm 0.01 in0.3 mm
06:20 AM 33.9°F1.1°C 32.6°F0.3°C 95% Calm Calm 2.3 mph3.7 kmh 30.22 in1023.4 mb - 0.00 in0.0 mm 0.01 in0.3 mm
06:30 AM 33.9°F1.1°C 32.6°F0.3°C 95% Calm Calm 1.2 mph1.9 kmh 30.22 in1023.4 mb - 0.00 in0.0 mm 0.01 in0.3 mm
06:40 AM 34.0°F1.1°C 32.7°F0.4°C 95% 2.3 mph NW3.7 kmh NW 2.3 mph3.7 kmh 30.23 in1023.7 mb - 0.00 in0.0 mm 0.01 in0.3 mm
06:50 AM 34.0°F1.1°C 32.8°F0.4°C 95% Calm Calm -- 30.23 in1023.7 mb - 0.00 in0.0 mm 0.01 in0.3 mm
07:00 AM 34.2°F1.2°C 33.0°F0.6°C 95% Calm Calm 1.2 mph1.9 kmh 30.24 in1024.0 mb - 0.00 in0.0 mm 0.01 in0.3 mm
07:10 AM 34.1°F1.2°C 32.8°F0.4°C 95% 2.3 mph W3.7 kmh W 2.3 mph3.7 kmh 30.24 in1024.0 mb - 0.00 in0.0 mm 0.01 in0.3 mm
07:20 AM 34.1°F1.2°C 32.8°F0.4°C 95% 2.3 mph NW3.7 kmh NW 2.3 mph3.7 kmh 30.25 in1024.4 mb - 0.00 in0.0 mm 0.01 in0.3 mm
07:30 AM 34.0°F1.1°C 32.7°F0.4°C 95% Calm Calm -- 30.25 in1024.4 mb - 0.00 in0.0 mm 0.01 in0.3 mm
07:40 AM 34.0°F1.1°C 32.7°F0.4°C 95% 1.2 mph S1.9 kmh S 2.3 mph3.7 kmh 30.25 in1024.4 mb - 0.00 in0.0 mm 0.01 in0.3 mm
07:50 AM 34.0°F1.1°C 32.8°F0.4°C 95% 1.2 mph W1.9 kmh W 2.3 mph3.7 kmh 30.25 in1024.4 mb - 0.01 in0.3 mm 0.02 in0.5 mm
08:00 AM 34.2°F1.2°C 32.9°F0.5°C 95% Calm Calm 1.2 mph1.9 kmh 30.25 in1024.4 mb - 0.00 in0.0 mm 0.02 in0.5 mm
08:10 AM 34.6°F1.4°C 33.3°F0.7°C 95% 1.2 mph SW1.9 kmh SW 2.3 mph3.7 kmh 30.25 in1024.4 mb - 0.00 in0.0 mm 0.02 in0.5 mm
08:20 AM 34.7°F1.5°C 33.4°F0.8°C 95% 1.2 mph WNW1.9 kmh WNW 2.3 mph3.7 kmh 30.25 in1024.4 mb - 0.00 in0.0 mm 0.02 in0.5 mm
08:30 AM 35.1°F1.7°C 33.8°F1.0°C 95% 3.5 mph W5.6 kmh W 2.3 mph3.7 kmh 30.25 in1024.4 mb - 0.00 in0.0 mm 0.02 in0.5 mm
08:40 AM 35.3°F1.8°C 34.0°F1.1°C 95% 2.3 mph W3.7 kmh W 2.3 mph3.7 kmh 30.25 in1024.4 mb - 0.00 in0.0 mm 0.02 in0.5 mm
08:50 AM 35.7°F2.1°C 34.4°F1.3°C 95% Calm Calm 2.3 mph3.7 kmh 30.25 in1024.4 mb - 0.00 in0.0 mm 0.02 in0.5 mm
09:00 AM 35.9°F2.2°C 34.6°F1.4°C 95% 2.3 mph SW3.7 kmh SW 2.3 mph3.7 kmh 30.25 in1024.4 mb - 0.00 in0.0 mm 0.02 in0.5 mm
09:10 AM 36.1°F2.3°C 34.9°F1.6°C 95% 1.2 mph W1.9 kmh W 3.5 mph5.6 kmh 30.25 in1024.4 mb - 0.00 in0.0 mm 0.02 in0.5 mm
09:20 AM 36.2°F2.3°C 34.9°F1.6°C 95% 3.5 mph E5.6 kmh E 2.3 mph3.7 kmh 30.25 in1024.4 mb - 0.00 in0.0 mm 0.02 in0.5 mm
09:30 AM 36.4°F2.4°C 35.1°F1.7°C 95% Calm Calm 1.2 mph1.9 kmh 30.25 in1024.4 mb - 0.00 in0.0 mm 0.02 in0.5 mm
09:40 AM 36.4°F2.4°C 35.1°F1.7°C 95% 2.3 mph E3.7 kmh E 2.3 mph3.7 kmh 30.26 in1024.7 mb - 0.00 in0.0 mm 0.02 in0.5 mm
09:50 AM 36.7°F2.6°C 35.4°F1.9°C 95% 1.2 mph NNW1.9 kmh NNW 2.3 mph3.7 kmh 30.26 in1024.7 mb - 0.00 in0.0 mm 0.02 in0.5 mm
10:00 AM 36.8°F2.7°C 35.5°F1.9°C 95% Calm Calm -- 30.26 in1024.7 mb - 0.00 in0.0 mm 0.02 in0.5 mm
10:10 AM 36.8°F2.7°C 35.5°F1.9°C 95% 3.5 mph NE5.6 kmh NE 5.8 mph9.3 kmh 30.25 in1024.4 mb - 0.00 in0.0 mm 0.02 in0.5 mm
10:20 AM 36.9°F2.7°C 35.6°F2.0°C 95% 1.2 mph NW1.9 kmh NW 8.1 mph13.0 kmh 30.25 in1024.4 mb - 0.00 in0.0 mm 0.02 in0.5 mm
10:30 AM 37.9°F3.3°C 36.6°F2.6°C 95% 2.3 mph N3.7 kmh N 2.3 mph3.7 kmh 30.25 in1024.4 mb - 0.00 in0.0 mm 0.02 in0.5 mm
10:40 AM 38.4°F3.6°C 37.1°F2.8°C 95% 2.3 mph NW3.7 kmh NW 2.3 mph3.7 kmh 30.25 in1024.4 mb - 0.00 in0.0 mm 0.02 in0.5 mm
10:50 AM 38.7°F3.7°C 37.1°F2.8°C 94% 3.5 mph WNW5.6 kmh WNW 5.8 mph9.3 kmh 30.25 in1024.4 mb - 0.00 in0.0 mm 0.02 in0.5 mm
11:00 AM 39.0°F3.9°C 37.1°F2.8°C 93% 1.2 mph SW1.9 kmh SW 2.3 mph3.7 kmh 30.25 in1024.4 mb - 0.00 in0.0 mm 0.02 in0.5 mm
11:10 AM 39.5°F4.2°C 37.1°F2.8°C 91% 2.3 mph N3.7 kmh N 2.3 mph3.7 kmh 30.25 in1024.4 mb - 0.00 in0.0 mm 0.02 in0.5 mm
11:20 AM 39.4°F4.1°C 36.7°F2.6°C 90% 3.5 mph W5.6 kmh W 6.9 mph11.1 kmh 30.25 in1024.4 mb - 0.00 in0.0 mm 0.02 in0.5 mm
11:30 AM 39.3°F4.1°C 36.3°F2.4°C 89% 2.3 mph E3.7 kmh E 2.3 mph3.7 kmh 30.25 in1024.4 mb - 0.00 in0.0 mm 0.02 in0.5 mm
11:40 AM 39.6°F4.2°C 36.0°F2.2°C 87% 3.5 mph W5.6 kmh W 6.9 mph11.1 kmh 30.25 in1024.4 mb - 0.00 in0.0 mm 0.02 in0.5 mm
11:50 AM 39.6°F4.2°C 36.3°F2.4°C 88% 2.3 mph NE3.7 kmh NE 3.5 mph5.6 kmh 30.24 in1024.0 mb - 0.00 in0.0 mm 0.02 in0.5 mm
12:00 PM 39.7°F4.3°C 35.8°F2.1°C 86% 2.3 mph NNW3.7 kmh NNW 2.3 mph3.7 kmh 30.24 in1024.0 mb - 0.00 in0.0 mm 0.02 in0.5 mm
12:10 PM 39.9°F4.4°C 35.8°F2.1°C 85% Calm Calm 1.2 mph1.9 kmh 30.24 in1024.0 mb - 0.00 in0.0 mm 0.02 in0.5 mm
12:20 PM 40.4°F4.7°C 36.5°F2.5°C 86% Calm Calm 1.2 mph1.9 kmh 30.24 in1024.0 mb - 0.00 in0.0 mm 0.02 in0.5 mm
12:30 PM 40.7°F4.8°C 36.2°F2.3°C 84% 2.3 mph N3.7 kmh N 2.3 mph3.7 kmh 30.24 in1024.0 mb - 0.00 in0.0 mm 0.02 in0.5 mm
12:40 PM 41.2°F5.1°C 36.4°F2.4°C 83% 1.2 mph E1.9 kmh E 2.3 mph3.7 kmh 30.24 in1024.0 mb - 0.00 in0.0 mm 0.02 in0.5 mm
12:50 PM 41.2°F5.1°C 35.5°F1.9°C 80% 3.5 mph ESE5.6 kmh ESE 2.3 mph3.7 kmh 30.24 in1024.0 mb - 0.00 in0.0 mm 0.02 in0.5 mm
01:00 PM 40.7°F4.8°C 35.3°F1.8°C 81% 2.3 mph WSW3.7 kmh WSW 2.3 mph3.7 kmh 30.23 in1023.7 mb - 0.00 in0.0 mm 0.02 in0.5 mm
01:10 PM 40.8°F4.9°C 35.4°F1.9°C 81% 2.3 mph WNW3.7 kmh WNW 2.3 mph3.7 kmh 30.24 in1024.0 mb - 0.00 in0.0 mm 0.02 in0.5 mm
01:20 PM 40.5°F4.7°C 35.1°F1.7°C 81% 1.2 mph E1.9 kmh E 1.2 mph1.9 kmh 30.24 in1024.0 mb - 0.00 in0.0 mm 0.02 in0.5 mm
01:30 PM 40.5°F4.7°C 35.1°F1.7°C 81% 2.3 mph NE3.7 kmh NE 3.5 mph5.6 kmh 30.23 in1023.7 mb - 0.00 in0.0 mm 0.02 in0.5 mm
01:40 PM 40.7°F4.8°C 35.3°F1.8°C 81% 2.3 mph WNW3.7 kmh WNW 2.3 mph3.7 kmh 30.23 in1023.7 mb - 0.00 in0.0 mm 0.02 in0.5 mm
01:50 PM 40.8°F4.9°C 35.1°F1.7°C 80% 4.6 mph WNW7.4 kmh WNW 3.5 mph5.6 kmh 30.23 in1023.7 mb - 0.00 in0.0 mm 0.02 in0.5 mm
02:00 PM 40.8°F4.9°C 35.1°F1.7°C 80% 2.3 mph NNW3.7 kmh NNW 2.3 mph3.7 kmh 30.22 in1023.4 mb - 0.00 in0.0 mm 0.02 in0.5 mm
02:10 PM 40.8°F4.9°C 35.7°F2.1°C 82% 1.2 mph NE1.9 kmh NE 2.3 mph3.7 kmh 30.22 in1023.4 mb - 0.00 in0.0 mm 0.02 in0.5 mm
02:20 PM 40.8°F4.9°C 35.1°F1.7°C 80% 2.3 mph NW3.7 kmh NW 2.3 mph3.7 kmh 30.22 in1023.4 mb - 0.00 in0.0 mm 0.02 in0.5 mm
02:30 PM 40.8°F4.9°C 35.4°F1.9°C 81% 1.2 mph NNW1.9 kmh NNW 1.2 mph1.9 kmh 30.22 in1023.4 mb - 0.00 in0.0 mm 0.02 in0.5 mm
02:40 PM 40.8°F4.9°C 35.1°F1.7°C 80% 2.3 mph NW3.7 kmh NW 2.3 mph3.7 kmh 30.22 in1023.4 mb - 0.00 in0.0 mm 0.02 in0.5 mm
02:50 PM 40.8°F4.9°C 35.1°F1.7°C 80% Calm Calm -- 30.22 in1023.4 mb - 0.00 in0.0 mm 0.02 in0.5 mm
03:00 PM 40.8°F4.9°C 35.4°F1.9°C 81% 2.3 mph NE3.7 kmh NE 2.3 mph3.7 kmh 30.22 in1023.4 mb - 0.00 in0.0 mm 0.02 in0.5 mm
03:10 PM 40.6°F4.8°C 35.2°F1.8°C 81% 2.3 mph N3.7 kmh N 2.3 mph3.7 kmh 30.22 in1023.4 mb - 0.00 in0.0 mm 0.02 in0.5 mm
03:20 PM 40.5°F4.7°C 35.4°F1.9°C 82% Calm Calm 2.3 mph3.7 kmh 30.22 in1023.4 mb - 0.00 in0.0 mm 0.02 in0.5 mm
03:50 PM 39.8°F4.3°C 35.0°F1.7°C 83% 1.2 mph NNW1.9 kmh NNW 1.2 mph1.9 kmh 30.22 in1023.4 mb - 0.00 in0.0 mm 0.02 in0.5 mm
04:00 PM 39.7°F4.3°C 35.5°F1.9°C 85% 1.2 mph NNW1.9 kmh NNW 1.2 mph1.9 kmh 30.22 in1023.4 mb - 0.00 in0.0 mm 0.02 in0.5 mm
04:10 PM 39.5°F4.2°C 35.3°F1.8°C 85% Calm Calm 1.2 mph1.9 kmh 30.22 in1023.4 mb - 0.00 in0.0 mm 0.02 in0.5 mm
04:20 PM 39.1°F3.9°C 35.6°F2.0°C 87% Calm Calm -- 30.22 in1023.4 mb - 0.00 in0.0 mm 0.02 in0.5 mm
04:30 PM 39.0°F3.9°C 35.1°F1.7°C 86% 1.2 mph W1.9 kmh W 1.2 mph1.9 kmh 30.22 in1023.4 mb - 0.00 in0.0 mm 0.02 in0.5 mm
04:40 PM 38.9°F3.8°C 35.3°F1.8°C 87% Calm Calm 2.3 mph3.7 kmh 30.22 in1023.4 mb - 0.00 in0.0 mm 0.02 in0.5 mm
04:50 PM 38.8°F3.8°C 34.7°F1.5°C 85% 1.2 mph ENE1.9 kmh ENE 2.3 mph3.7 kmh 30.22 in1023.4 mb - 0.00 in0.0 mm 0.02 in0.5 mm
05:00 PM 38.8°F3.8°C 34.6°F1.4°C 85% 2.3 mph NW3.7 kmh NW 2.3 mph3.7 kmh 30.22 in1023.4 mb - 0.00 in0.0 mm 0.02 in0.5 mm
05:10 PM 38.7°F3.7°C 34.5°F1.4°C 85% Calm Calm -- 30.23 in1023.7 mb - 0.00 in0.0 mm 0.02 in0.5 mm
05:20 PM 38.5°F3.6°C 35.2°F1.8°C 88% 1.2 mph WSW1.9 kmh WSW 1.2 mph1.9 kmh 30.23 in1023.7 mb - 0.00 in0.0 mm 0.02 in0.5 mm
05:30 PM 38.3°F3.5°C 34.8°F1.6°C 87% Calm Calm -- 30.23 in1023.7 mb - 0.00 in0.0 mm 0.02 in0.5 mm
05:40 PM 38.2°F3.4°C 34.7°F1.5°C 87% Calm Calm -- 30.23 in1023.7 mb - 0.00 in0.0 mm 0.02 in0.5 mm
05:50 PM 38.2°F3.4°C 35.0°F1.7°C 88% 1.2 mph NNW1.9 kmh NNW 1.2 mph1.9 kmh 30.23 in1023.7 mb - 0.00 in0.0 mm 0.02 in0.5 mm
06:00 PM 38.1°F3.4°C 34.0°F1.1°C 85% Calm Calm 2.3 mph3.7 kmh 30.23 in1023.7 mb - 0.00 in0.0 mm 0.02 in0.5 mm
06:10 PM 38.1°F3.4°C 34.6°F1.4°C 87% 2.3 mph NNW3.7 kmh NNW 2.3 mph3.7 kmh 30.23 in1023.7 mb - 0.00 in0.0 mm 0.02 in0.5 mm
06:20 PM 37.9°F3.3°C 34.4°F1.3°C 87% Calm Calm 1.2 mph1.9 kmh 30.23 in1023.7 mb - 0.00 in0.0 mm 0.02 in0.5 mm
06:30 PM 37.9°F3.3°C 34.6°F1.4°C 88% Calm Calm 1.2 mph1.9 kmh 30.23 in1023.7 mb - 0.00 in0.0 mm 0.02 in0.5 mm
06:40 PM 37.9°F3.3°C 34.1°F1.2°C 86% 2.3 mph N3.7 kmh N 5.8 mph9.3 kmh 30.23 in1023.7 mb - 0.00 in0.0 mm 0.02 in0.5 mm
06:50 PM 37.9°F3.3°C 34.1°F1.2°C 86% 2.3 mph NW3.7 kmh NW 2.3 mph3.7 kmh 30.23 in1023.7 mb - 0.00 in0.0 mm 0.02 in0.5 mm
07:10 PM 37.7°F3.2°C 33.6°F0.9°C 85% Calm Calm -- 30.23 in1023.7 mb - 0.00 in0.0 mm 0.02 in0.5 mm
07:20 PM 37.6°F3.1°C 34.1°F1.2°C 87% Calm Calm 2.3 mph3.7 kmh 30.23 in1023.7 mb - 0.00 in0.0 mm 0.02 in0.5 mm
07:30 PM 37.5°F3.1°C 33.7°F0.9°C 86% 3.5 mph N5.6 kmh N 6.9 mph11.1 kmh 30.23 in1023.7 mb - 0.00 in0.0 mm 0.02 in0.5 mm
07:40 PM 37.4°F3.0°C 33.6°F0.9°C 86% Calm Calm -- 30.23 in1023.7 mb - 0.00 in0.0 mm 0.02 in0.5 mm
07:50 PM 37.4°F3.0°C 33.6°F0.9°C 86% 2.3 mph NW3.7 kmh NW 3.5 mph5.6 kmh 30.23 in1023.7 mb - 0.00 in0.0 mm 0.02 in0.5 mm
08:00 PM 37.4°F3.0°C 33.6°F0.9°C 86% 2.3 mph NNW3.7 kmh NNW 2.3 mph3.7 kmh 30.23 in1023.7 mb - 0.00 in0.0 mm 0.02 in0.5 mm
08:10 PM 37.2°F2.9°C 33.7°F0.9°C 87% 2.3 mph NE3.7 kmh NE 2.3 mph3.7 kmh 30.23 in1023.7 mb - 0.00 in0.0 mm 0.02 in0.5 mm
08:20 PM 37.2°F2.9°C 34.0°F1.1°C 88% 1.2 mph 1.9 kmh 2.3 mph3.7 kmh 30.23 in1023.7 mb - 0.00 in0.0 mm 0.02 in0.5 mm
08:30 PM 37.2°F2.9°C 33.7°F0.9°C 87% 2.3 mph NW3.7 kmh NW 2.3 mph3.7 kmh 30.23 in1023.7 mb - 0.00 in0.0 mm 0.02 in0.5 mm
08:40 PM 37.1°F2.8°C 33.8°F1.0°C 88% 1.2 mph ENE1.9 kmh ENE 1.2 mph1.9 kmh 30.23 in1023.7 mb - 0.00 in0.0 mm 0.02 in0.5 mm
08:50 PM 37.0°F2.8°C 33.8°F1.0°C 88% 1.2 mph NNW1.9 kmh NNW -- 30.23 in1023.7 mb - 0.00 in0.0 mm 0.02 in0.5 mm
09:00 PM 37.0°F2.8°C 33.8°F1.0°C 88% 2.3 mph NW3.7 kmh NW 2.3 mph3.7 kmh 30.23 in1023.7 mb - 0.00 in0.0 mm 0.02 in0.5 mm
09:10 PM 37.0°F2.8°C 34.0°F1.1°C 89% Calm Calm -- 30.23 in1023.7 mb - 0.00 in0.0 mm 0.02 in0.5 mm
09:20 PM 36.8°F2.7°C 33.9°F1.1°C 89% 1.2 mph N1.9 kmh N 2.3 mph3.7 kmh 30.23 in1023.7 mb - 0.00 in0.0 mm 0.02 in0.5 mm
09:30 PM 36.8°F2.7°C 33.6°F0.9°C 88% 1.2 mph NE1.9 kmh NE 2.3 mph3.7 kmh 30.23 in1023.7 mb - 0.00 in0.0 mm 0.02 in0.5 mm
09:40 PM 36.8°F2.7°C 33.8°F1.0°C 89% 1.2 mph NE1.9 kmh NE 1.2 mph1.9 kmh 30.23 in1023.7 mb - 0.00 in0.0 mm 0.02 in0.5 mm
09:50 PM 36.6°F2.6°C 33.9°F1.1°C 90% Calm Calm -- 30.23 in1023.7 mb - 0.00 in0.0 mm 0.02 in0.5 mm
10:00 PM 36.6°F2.6°C 33.9°F1.1°C 90% Calm Calm -- 30.22 in1023.4 mb - 0.00 in0.0 mm 0.02 in0.5 mm
10:10 PM 36.5°F2.5°C 34.4°F1.3°C 92% Calm Calm -- 30.22 in1023.4 mb - 0.00 in0.0 mm 0.02 in0.5 mm
10:20 PM 36.3°F2.4°C 34.2°F1.2°C 92% Calm Calm -- 30.22 in1023.4 mb - 0.00 in0.0 mm 0.02 in0.5 mm
10:30 PM 36.2°F2.3°C 34.1°F1.2°C 92% Calm Calm -- 30.22 in1023.4 mb - 0.00 in0.0 mm 0.02 in0.5 mm
10:40 PM 36.2°F2.3°C 34.4°F1.3°C 93% 1.2 mph WNW1.9 kmh WNW 2.3 mph3.7 kmh 30.22 in1023.4 mb - 0.00 in0.0 mm 0.02 in0.5 mm
10:50 PM 36.2°F2.3°C 34.1°F1.2°C 92% Calm Calm 1.2 mph1.9 kmh 30.22 in1023.4 mb - 0.00 in0.0 mm 0.02 in0.5 mm
11:00 PM 36.0°F2.2°C 33.9°F1.1°C 92% Calm Calm -- 30.22 in1023.4 mb - 0.00 in0.0 mm 0.02 in0.5 mm
11:10 PM 35.9°F2.2°C 33.8°F1.0°C 92% 2.3 mph W3.7 kmh W 2.3 mph3.7 kmh 30.21 in1023.0 mb - 0.00 in0.0 mm 0.02 in0.5 mm
11:20 PM 35.8°F2.1°C 34.0°F1.1°C 93% Calm Calm -- 30.21 in1023.0 mb - 0.00 in0.0 mm 0.02 in0.5 mm
11:30 PM 35.6°F2.0°C 33.8°F1.0°C 93% Calm Calm -- 30.21 in1023.0 mb - 0.00 in0.0 mm 0.02 in0.5 mm
11:40 PM 35.5°F1.9°C 33.9°F1.1°C 94% 1.2 mph W1.9 kmh W 2.3 mph3.7 kmh 30.21 in1023.0 mb - 0.00 in0.0 mm 0.02 in0.5 mm
11:50 PM 35.3°F1.8°C 33.8°F1.0°C 94% 1.2 mph W1.9 kmh W 2.3 mph3.7 kmh 30.21 in1023.0 mb - 0.00 in0.0 mm 0.02 in0.5 mm